createdAt,value
2023-01-25T00:01:05.255Z,2.97
2023-01-25T00:03:35.030Z,2.83
2023-01-25T00:06:02.479Z,3.08
2023-01-25T00:08:34.902Z,2.70
2023-01-25T00:11:01.964Z,2.90
2023-01-25T00:13:28.998Z,3.03
2023-01-25T00:16:02.416Z,3.20
2023-01-25T00:18:29.611Z,3.05
2023-01-25T00:20:56.829Z,2.85
2023-01-25T00:23:23.988Z,2.80
2023-01-25T00:25:58.650Z,3.05
2023-01-25T00:28:26.276Z,3.53
2023-01-25T00:31:08.646Z,3.53
2023-01-25T00:34:26.811Z,3.60
2023-01-25T00:37:01.238Z,3.35
2023-01-25T00:42:42.871Z,3.80
2023-01-25T00:45:40.098Z,3.35
2023-01-25T00:48:07.617Z,3.70
2023-01-25T00:50:37.880Z,3.65
2023-01-25T00:53:05.908Z,3.23
2023-01-25T00:55:33.130Z,3.72
2023-01-25T00:58:00.690Z,3.33
2023-01-25T01:00:28.253Z,3.88
2023-01-25T01:02:57.144Z,3.80
2023-01-25T01:05:24.389Z,3.53
2023-01-25T01:07:51.502Z,3.63
2023-01-25T01:10:23.540Z,3.80
2023-01-25T01:12:51.944Z,3.80
2023-01-25T01:15:19.124Z,3.80
2023-01-25T01:17:49.121Z,3.20
2023-01-25T01:20:16.625Z,4.07
2023-01-25T01:22:44.754Z,3.85
2023-01-25T01:25:13.449Z,3.58
2023-01-25T01:27:40.662Z,3.50
2023-01-25T01:30:16.221Z,4.28
2023-01-25T01:32:49.030Z,3.80
2023-01-25T01:35:22.857Z,3.65
2023-01-25T01:37:50.412Z,3.83
2023-01-25T01:40:17.680Z,4.20
2023-01-25T01:43:01.095Z,3.65
2023-01-25T01:46:00.921Z,3.45
2023-01-25T01:48:40.602Z,4.03
2023-01-25T01:51:20.712Z,3.83
2023-01-25T01:54:02.056Z,3.47
2023-01-25T01:56:36.251Z,3.30
2023-01-25T01:59:07.875Z,3.42
2023-01-25T02:01:45.069Z,3.47
2023-01-25T02:04:14.612Z,3.40
2023-01-25T02:06:51.080Z,3.15
2023-01-25T02:09:28.159Z,3.30
2023-01-25T02:12:00.530Z,3.10
2023-01-25T02:14:34.733Z,3.17
2023-01-25T02:17:16.211Z,3.17
2023-01-25T02:20:27.490Z,3.13
2023-01-25T02:26:26.215Z,2.72
2023-01-25T02:29:06.692Z,2.85
2023-01-25T02:31:48.009Z,3.10
2023-01-25T02:34:43.242Z,2.70
2023-01-25T02:37:33.907Z,2.92
2023-01-25T02:46:57.002Z,2.70
2023-01-25T02:50:29.407Z,2.67
2023-01-25T02:59:47.770Z,2.40
2023-01-25T03:14:37.171Z,2.17
2023-01-25T03:20:50.022Z,2.50
2023-01-25T03:26:30.923Z,2.13
2023-01-25T03:29:35.809Z,2.17
2023-01-25T03:32:07.311Z,2.22
2023-01-25T03:35:07.485Z,2.40
2023-01-25T03:38:20.198Z,2.35
2023-01-25T03:57:01.182Z,2.40
2023-01-25T03:59:54.194Z,2.20
2023-01-25T04:05:41.415Z,2.22
2023-01-25T04:08:39.647Z,2.33
2023-01-25T04:11:53.054Z,2.15
2023-01-25T04:20:58.775Z,2.28
2023-01-25T04:33:52.572Z,1.95
2023-01-25T04:48:56.161Z,2.15
2023-01-25T04:51:48.759Z,2.10
2023-01-25T05:00:48.078Z,2.10
2023-01-25T05:03:40.605Z,2.20
2023-01-25T05:09:23.774Z,2.03
2023-01-25T05:12:34.511Z,2.08
2023-01-25T05:15:21.100Z,2.10
2023-01-25T05:17:58.696Z,2.08
2023-01-25T05:21:16.533Z,1.90
2023-01-25T05:24:36.393Z,2.10
